createdAt,value
2022-12-06T00:01:15.866Z,111.28
2022-12-06T00:03:44.726Z,110.88
2022-12-06T00:06:14.654Z,104.80
2022-12-06T00:08:42.655Z,108.97
2022-12-06T00:11:14.246Z,110.40
2022-12-06T00:13:42.573Z,100.50
2022-12-06T00:16:11.990Z,105.32
2022-12-06T00:18:41.424Z,100.13
2022-12-06T00:21:21.096Z,106.20
2022-12-06T00:23:51.648Z,102.10
2022-12-06T00:26:19.586Z,104.95
2022-12-06T00:28:47.035Z,93.95
2022-12-06T00:31:18.460Z,91.68
2022-12-06T00:33:45.895Z,94.45
2022-12-06T00:36:18.424Z,97.70
2022-12-06T00:41:21.252Z,83.70
2022-12-06T00:43:48.840Z,91.28
2022-12-06T00:46:18.181Z,87.07
2022-12-06T00:48:46.484Z,77.47
2022-12-06T00:51:14.096Z,85.32
2022-12-06T00:53:41.929Z,81.55
2022-12-06T00:56:09.044Z,76.70
2022-12-06T00:58:36.258Z,79.25
2022-12-06T01:01:08.917Z,76.88
2022-12-06T01:03:36.378Z,77.20
2022-12-06T01:06:08.306Z,65.53
2022-12-06T01:08:36.969Z,82.95
2022-12-06T01:11:04.944Z,71.22
2022-12-06T01:13:32.487Z,75.53
2022-12-06T01:16:08.168Z,71.45
2022-12-06T01:18:36.913Z,70.43
2022-12-06T01:21:12.834Z,69.80
2022-12-06T01:23:40.250Z,78.25
2022-12-06T01:26:07.902Z,68.05
2022-12-06T01:28:35.354Z,68.82
2022-12-06T01:31:06.915Z,70.07
2022-12-06T01:33:34.615Z,70.23
2022-12-06T01:36:01.411Z,69.55
2022-12-06T01:38:28.711Z,73.75
2022-12-06T01:40:55.619Z,66.32
2022-12-06T01:43:49.929Z,66.55
2022-12-06T01:46:33.374Z,66.75
2022-12-06T01:49:18.099Z,66.97
2022-12-06T01:51:59.732Z,67.88
2022-12-06T01:54:27.681Z,63.20
2022-12-06T01:56:56.086Z,70.32
2022-12-06T01:59:25.294Z,71.72
2022-12-06T02:01:52.821Z,73.97
2022-12-06T02:04:21.763Z,68.10
2022-12-06T02:06:49.764Z,71.13
2022-12-06T02:09:18.033Z,75.93
2022-12-06T02:11:45.800Z,63.33
2022-12-06T02:14:17.281Z,69.15
2022-12-06T02:17:21.589Z,72.82
2022-12-06T02:20:17.837Z,70.78
2022-12-06T02:23:14.582Z,72.82
2022-12-06T02:26:13.062Z,71.40
2022-12-06T02:29:17.359Z,69.57
2022-12-06T02:31:51.318Z,65.22
2022-12-06T02:34:46.449Z,69.10
2022-12-06T02:37:21.166Z,65.45
2022-12-06T02:40:14.270Z,66.07
2022-12-06T02:42:55.658Z,68.70
2022-12-06T02:45:32.118Z,68.00
2022-12-06T02:48:02.937Z,63.65
2022-12-06T02:50:35.388Z,61.50
2022-12-06T02:53:04.504Z,66.55
2022-12-06T02:55:33.126Z,77.05
2022-12-06T02:57:59.701Z,64.28
2022-12-06T03:00:43.010Z,71.05
2022-12-06T03:03:39.703Z,67.55
2022-12-06T03:06:15.215Z,69.57
2022-12-06T03:09:09.893Z,70.63
2022-12-06T03:12:06.601Z,77.05
2022-12-06T03:14:49.136Z,76.15
2022-12-06T03:17:24.649Z,74.27
2022-12-06T03:19:59.669Z,67.55
2022-12-06T03:22:39.631Z,65.72
2022-12-06T03:25:09.433Z,69.05
2022-12-06T03:27:36.648Z,67.70
2022-12-06T03:30:09.999Z,68.50
2022-12-06T03:32:40.942Z,63.20
2022-12-06T03:35:11.221Z,81.25
2022-12-06T03:37:40.753Z,68.57
2022-12-06T03:40:21.427Z,68.00
2022-12-06T03:42:48.955Z,67.93
2022-12-06T03:45:16.764Z,66.53
2022-12-06T03:47:47.908Z,66.05
2022-12-06T03:50:34.129Z,62.65
2022-12-06T03:53:01.431Z,68.60
2022-12-06T03:55:28.754Z,70.15
2022-12-06T03:57:55.442Z,72.75
2022-12-06T04:00:22.860Z,64.25
2022-12-06T04:02:49.500Z,64.07
2022-12-06T04:05:16.960Z,59.50
2022-12-06T04:07:43.629Z,57.00
2022-12-06T04:10:11.234Z,60.85
2022-12-06T04:12:56.614Z,63.15
2022-12-06T04:15:23.995Z,59.33
2022-12-06T04:18:09.700Z,60.83
2022-12-06T04:21:23.152Z,66.78
2022-12-06T04:23:52.184Z,59.70
2022-12-06T04:26:21.588Z,58.08
2022-12-06T04:29:08.436Z,61.22
2022-12-06T04:31:54.990Z,58.38
2022-12-06T04:34:40.881Z,61.13
2022-12-06T04:37:26.335Z,53.30
2022-12-06T04:39:53.604Z,50.03
2022-12-06T04:42:38.749Z,58.75
2022-12-06T04:45:06.951Z,59.08
2022-12-06T04:47:33.524Z,58.17
2022-12-06T04:50:01.200Z,50.20
2022-12-06T04:52:32.649Z,52.63
2022-12-06T04:55:03.085Z,50.72
2022-12-06T04:57:29.756Z,50.58
2022-12-06T04:59:57.267Z,51.83
2022-12-06T05:02:23.944Z,59.03
2022-12-06T05:04:51.321Z,49.35
2022-12-06T05:07:17.978Z,55.28
2022-12-06T05:09:45.228Z,58.03
2022-12-06T05:12:11.836Z,53.17
2022-12-06T05:14:39.129Z,63.53
2022-12-06T05:17:05.749Z,52.42
2022-12-06T05:19:32.988Z,56.05
2022-12-06T05:21:59.556Z,50.90
2022-12-06T05:24:26.903Z,50.15
2022-12-06T05:26:53.520Z,45.95
2022-12-06T05:29:20.897Z,45.88
2022-12-06T05:31:47.760Z,64.43
2022-12-06T05:34:15.237Z,46.85
2022-12-06T05:36:44.695Z,51.83
2022-12-06T05:39:12.117Z,50.50
2022-12-06T05:41:38.712Z,48.92
2022-12-06T05:44:06.048Z,44.55
2022-12-06T05:46:32.677Z,46.70
2022-12-06T05:48:59.979Z,49.05
2022-12-06T05:51:26.563Z,43.22
2022-12-06T05:53:53.564Z,44.20
2022-12-06T05:56:20.869Z,42.13
2022-12-06T05:58:47.458Z,47.45
2022-12-06T06:01:14.667Z,48.78
2022-12-06T06:03:47.207Z,44.70
2022-12-06T06:06:15.846Z,44.35
2022-12-06T06:08:42.504Z,52.92
2022-12-06T06:11:09.684Z,56.30
2022-12-06T06:13:36.342Z,45.58
2022-12-06T06:16:03.862Z,54.85
2022-12-06T06:18:30.449Z,50.00
2022-12-06T06:20:59.946Z,55.03
2022-12-06T06:23:27.649Z,56.38
2022-12-06T06:25:55.343Z,52.45
2022-12-06T06:28:22.148Z,59.20
2022-12-06T06:30:49.377Z,57.80
2022-12-06T06:33:16.625Z,71.55
2022-12-06T06:35:44.202Z,54.63
2022-12-06T06:38:10.818Z,63.25
2022-12-06T06:40:38.058Z,61.83
2022-12-06T06:43:23.428Z,59.17
2022-12-06T06:45:59.663Z,68.22
2022-12-06T06:48:28.753Z,57.10
2022-12-06T06:50:57.900Z,61.35
2022-12-06T06:53:27.312Z,60.72
2022-12-06T06:55:54.556Z,57.13
2022-12-06T06:58:21.392Z,57.25
2022-12-06T07:00:57.581Z,57.25
2022-12-06T07:03:24.981Z,69.90
2022-12-06T07:05:53.989Z,55.03
2022-12-06T07:08:20.835Z,60.28
2022-12-06T07:10:49.093Z,55.42
2022-12-06T07:13:16.675Z,58.50
2022-12-06T07:15:44.082Z,65.07
2022-12-06T07:18:10.658Z,59.33
2022-12-06T07:20:37.967Z,55.40
2022-12-06T07:23:04.983Z,56.47
2022-12-06T07:25:32.367Z,60.42
2022-12-06T07:27:59.068Z,53.28
2022-12-06T07:30:27.790Z,57.78
2022-12-06T07:32:54.815Z,52.75
2022-12-06T07:35:22.372Z,61.22
2022-12-06T07:37:49.055Z,56.05
2022-12-06T07:40:17.498Z,59.88
2022-12-06T07:43:03.495Z,56.50
2022-12-06T07:45:30.491Z,59.88
2022-12-06T07:47:57.473Z,59.45
2022-12-06T07:50:24.598Z,64.28
2022-12-06T07:52:51.936Z,55.50
2022-12-06T07:55:19.389Z,62.47
2022-12-06T07:57:46.373Z,56.95
2022-12-06T08:00:16.396Z,56.17
2022-12-06T08:02:43.229Z,56.85
2022-12-06T08:05:10.885Z,60.65
2022-12-06T08:07:38.108Z,62.83
2022-12-06T08:10:06.771Z,66.93
2022-12-06T08:12:33.522Z,62.03
2022-12-06T08:15:00.805Z,54.88
2022-12-06T08:17:29.585Z,57.75
2022-12-06T08:19:56.198Z,52.22
2022-12-06T08:22:23.458Z,54.08
2022-12-06T08:24:50.298Z,64.47
2022-12-06T08:27:17.529Z,57.95
2022-12-06T08:29:45.217Z,54.67
2022-12-06T08:32:12.618Z,63.30
2022-12-06T08:34:39.285Z,58.47
2022-12-06T08:37:06.580Z,50.03
2022-12-06T08:39:33.215Z,55.45
2022-12-06T08:42:02.508Z,53.60
2022-12-06T08:44:31.331Z,53.47
2022-12-06T08:47:00.650Z,50.17
2022-12-06T08:49:28.800Z,55.03
2022-12-06T08:51:57.867Z,58.92
2022-12-06T08:54:25.280Z,54.17
2022-12-06T08:56:53.228Z,50.17
2022-12-06T08:59:20.143Z,55.67
2022-12-06T09:01:47.931Z,54.75
2022-12-06T09:04:15.100Z,52.92
2022-12-06T09:06:44.603Z,45.92
2022-12-06T09:09:12.536Z,52.10
2022-12-06T09:11:41.267Z,49.88
2022-12-06T09:14:13.263Z,43.28
2022-12-06T09:16:44.896Z,45.42
2022-12-06T09:19:13.280Z,48.30
2022-12-06T09:21:43.249Z,53.13
2022-12-06T09:24:15.524Z,47.58
2022-12-06T09:26:42.877Z,34.38
2022-12-06T09:29:10.242Z,46.95
2022-12-06T09:31:40.439Z,41.55
2022-12-06T09:34:08.911Z,39.88
2022-12-06T09:36:42.124Z,38.60
2022-12-06T09:42:20.623Z,39.78
2022-12-06T09:45:01.029Z,38.63
2022-12-06T09:47:54.158Z,40.55
2022-12-06T09:50:39.210Z,38.67
2022-12-06T09:53:43.282Z,33.80
2022-12-06T09:56:16.006Z,34.30
2022-12-06T09:59:01.131Z,37.20
2022-12-06T10:01:37.274Z,29.75
2022-12-06T10:04:41.310Z,30.85
2022-12-06T10:07:50.151Z,24.40
2022-12-06T10:10:26.109Z,43.17
2022-12-06T10:13:11.898Z,50.40
2022-12-06T10:15:56.409Z,71.70
2022-12-06T10:19:01.479Z,58.47
2022-12-06T10:22:14.840Z,23.75
2022-12-06T10:25:09.352Z,23.75
2022-12-06T10:27:48.348Z,28.73
2022-12-06T10:30:16.238Z,23.85
2022-12-06T10:32:51.652Z,30.58
2022-12-06T10:35:40.382Z,22.70
2022-12-06T10:38:19.341Z,21.30
2022-12-06T10:40:49.446Z,21.23
2022-12-06T10:43:25.725Z,27.25
2022-12-06T10:46:30.072Z,23.80
2022-12-06T10:49:19.038Z,25.25
2022-12-06T10:52:09.170Z,25.40
2022-12-06T10:54:46.489Z,22.35
2022-12-06T10:57:28.214Z,30.60
2022-12-06T11:00:03.925Z,31.55
2022-12-06T11:02:53.601Z,41.65
2022-12-06T11:05:36.557Z,21.88
2022-12-06T11:08:10.957Z,20.15
2022-12-06T11:10:39.082Z,15.95
2022-12-06T11:13:42.628Z,18.52
2022-12-06T11:16:33.351Z,19.42
2022-12-06T11:19:23.205Z,26.50
2022-12-06T11:22:16.381Z,39.40
2022-12-06T11:25:25.992Z,25.73
2022-12-06T11:28:05.638Z,20.75
2022-12-06T11:30:33.459Z,14.23
2022-12-06T11:33:02.392Z,13.32
2022-12-06T11:35:29.307Z,15.98
2022-12-06T11:38:01.261Z,18.05
2022-12-06T11:40:32.239Z,14.65
2022-12-06T11:43:01.631Z,18.85
2022-12-06T11:45:33.401Z,17.52
2022-12-06T11:48:11.058Z,13.07
2022-12-06T11:50:37.852Z,10.68
2022-12-06T11:53:30.468Z,12.25
2022-12-06T11:56:02.883Z,14.02
2022-12-06T11:58:44.457Z,17.50
2022-12-06T12:01:14.428Z,17.60
2022-12-06T12:03:48.475Z,18.02
2022-12-06T12:06:23.139Z,24.45
2022-12-06T12:09:06.155Z,20.02
2022-12-06T12:11:37.219Z,24.20
2022-12-06T12:14:14.464Z,26.85
2022-12-06T12:16:48.119Z,27.60
2022-12-06T12:19:40.462Z,12.75
2022-12-06T12:22:36.533Z,15.02
2022-12-06T12:25:25.765Z,18.83
2022-12-06T12:27:55.014Z,19.55
2022-12-06T12:30:35.224Z,18.80
2022-12-06T12:33:08.346Z,15.63
2022-12-06T12:35:43.883Z,13.50
2022-12-06T12:38:10.853Z,13.75
2022-12-06T12:40:44.092Z,19.00
2022-12-06T12:43:11.076Z,23.25
2022-12-06T12:46:02.542Z,20.42
2022-12-06T12:48:30.071Z,19.00
2022-12-06T12:51:00.311Z,20.35
2022-12-06T12:53:36.057Z,15.27
2022-12-06T12:56:14.437Z,10.68
2022-12-06T12:58:43.440Z,14.02
2022-12-06T13:01:25.705Z,14.50
2022-12-06T13:04:20.149Z,23.52
2022-12-06T13:06:54.198Z,14.52
2022-12-06T13:09:39.413Z,11.90
2022-12-06T13:12:13.245Z,9.98
2022-12-06T13:14:50.432Z,10.73
2022-12-06T13:17:18.606Z,10.43
2022-12-06T13:19:53.291Z,13.25
2022-12-06T13:22:26.415Z,10.27
2022-12-06T13:25:03.704Z,15.27
2022-12-06T13:27:35.619Z,14.93
2022-12-06T13:30:17.537Z,11.90
2022-12-06T13:32:59.152Z,13.23
2022-12-06T13:35:35.016Z,8.88
2022-12-06T13:38:26.143Z,11.15
2022-12-06T13:40:59.474Z,11.32
2022-12-06T13:43:26.079Z,12.23
2022-12-06T13:46:21.870Z,11.85
2022-12-06T13:48:57.400Z,11.85
2022-12-06T13:51:37.674Z,5.72
2022-12-06T13:54:05.182Z,10.02
2022-12-06T13:56:34.765Z,6.15
2022-12-06T13:59:04.991Z,8.38
2022-12-06T14:01:51.861Z,7.93
2022-12-06T14:06:56.235Z,9.35
2022-12-06T14:09:25.889Z,6.20
2022-12-06T14:11:53.358Z,12.35
2022-12-06T14:14:24.317Z,10.55
2022-12-06T14:16:52.871Z,9.82
2022-12-06T14:19:30.707Z,10.48
2022-12-06T14:22:03.275Z,9.23
2022-12-06T14:24:32.705Z,11.10
2022-12-06T14:27:11.272Z,10.60
2022-12-06T14:29:39.606Z,10.52
2022-12-06T14:32:06.862Z,6.53
2022-12-06T14:34:35.742Z,8.73
2022-12-06T14:37:21.269Z,13.40
2022-12-06T14:39:53.231Z,7.95
2022-12-06T14:42:46.145Z,9.30
2022-12-06T14:45:15.878Z,7.18
2022-12-06T14:47:44.795Z,9.55
2022-12-06T14:50:28.867Z,11.65
2022-12-06T14:53:14.405Z,10.57
2022-12-06T14:55:59.969Z,8.18
2022-12-06T14:58:33.702Z,13.23
2022-12-06T15:01:04.694Z,9.90
2022-12-06T15:03:38.784Z,15.75
2022-12-06T15:06:18.918Z,10.68
2022-12-06T15:08:55.289Z,12.77
2022-12-06T15:11:47.015Z,8.85
2022-12-06T15:14:49.090Z,8.07
2022-12-06T15:17:22.043Z,10.38
2022-12-06T15:22:27.418Z,11.95
2022-12-06T15:24:57.618Z,11.82
2022-12-06T15:27:26.765Z,10.25
2022-12-06T15:29:53.663Z,11.52
2022-12-06T15:32:23.474Z,12.10
2022-12-06T15:34:50.822Z,11.20
2022-12-06T15:40:04.915Z,20.67
2022-12-06T15:42:31.658Z,19.85
2022-12-06T15:44:58.571Z,15.15
2022-12-06T15:47:25.263Z,17.33
2022-12-06T15:49:54.196Z,13.00
2022-12-06T15:52:24.768Z,14.05
2022-12-06T15:54:52.327Z,12.35
2022-12-06T15:57:19.010Z,15.80
2022-12-06T15:59:45.661Z,16.25
2022-12-06T16:02:15.436Z,19.45
2022-12-06T16:04:43.243Z,12.88
2022-12-06T16:07:10.565Z,13.27
2022-12-06T16:09:37.342Z,28.67
2022-12-06T16:12:04.587Z,18.33
2022-12-06T16:14:31.221Z,19.13
2022-12-06T16:16:58.162Z,14.93
2022-12-06T16:19:44.784Z,19.80
2022-12-06T16:22:11.390Z,15.82
2022-12-06T16:24:38.133Z,17.00
2022-12-06T16:27:05.107Z,13.93
2022-12-06T16:29:31.875Z,15.52
2022-12-06T16:31:58.532Z,21.98
2022-12-06T16:34:27.306Z,18.88
2022-12-06T16:37:04.081Z,24.30
2022-12-06T16:39:33.657Z,55.72
2022-12-06T16:42:01.431Z,30.00
2022-12-06T16:44:29.043Z,22.70
2022-12-06T16:46:55.826Z,18.42
2022-12-06T16:52:15.780Z,18.55
2022-12-06T16:54:43.359Z,19.75
2022-12-06T16:57:11.791Z,18.58
2022-12-06T16:59:39.175Z,19.50
2022-12-06T17:02:26.935Z,19.38
2022-12-06T17:04:54.824Z,20.02
2022-12-06T17:07:21.626Z,17.60
2022-12-06T17:09:48.932Z,30.77
2022-12-06T17:12:15.558Z,22.55
2022-12-06T17:14:42.916Z,34.40
2022-12-06T17:17:19.993Z,18.98
2022-12-06T17:19:48.021Z,24.80
2022-12-06T17:22:19.017Z,28.85
2022-12-06T17:24:46.553Z,26.85
2022-12-06T17:27:14.600Z,22.90
2022-12-06T17:29:43.876Z,24.10
2022-12-06T17:32:11.313Z,23.10
2022-12-06T17:34:38.737Z,17.33
2022-12-06T17:37:05.997Z,26.70
2022-12-06T17:39:33.489Z,22.35
2022-12-06T17:42:18.705Z,21.33
2022-12-06T17:44:46.059Z,18.98
2022-12-06T17:47:12.759Z,22.30
2022-12-06T17:49:40.151Z,17.17
2022-12-06T17:52:06.834Z,19.00
2022-12-06T17:54:34.179Z,26.63
2022-12-06T17:57:00.858Z,23.85
2022-12-06T17:59:32.039Z,23.75
2022-12-06T18:02:16.934Z,27.73
2022-12-06T18:04:45.646Z,31.10
2022-12-06T18:07:14.136Z,24.83
2022-12-06T18:09:41.495Z,25.95
2022-12-06T18:12:09.426Z,30.25
2022-12-06T18:14:36.663Z,25.25
2022-12-06T18:17:04.252Z,23.17
2022-12-06T18:19:32.136Z,19.52
2022-12-06T18:21:58.787Z,26.83
2022-12-06T18:24:30.534Z,24.80
2022-12-06T18:27:01.471Z,23.88
2022-12-06T18:29:29.089Z,25.90
2022-12-06T18:31:55.858Z,21.00
2022-12-06T18:34:23.372Z,29.25
2022-12-06T18:36:51.088Z,29.02
2022-12-06T18:39:24.648Z,24.88
2022-12-06T18:41:53.131Z,20.10
2022-12-06T18:44:20.541Z,18.58
2022-12-06T18:46:47.225Z,24.08
2022-12-06T18:49:14.829Z,19.88
2022-12-06T18:51:41.785Z,21.27
2022-12-06T18:54:10.954Z,24.88
2022-12-06T18:56:37.684Z,22.45
2022-12-06T18:59:07.427Z,25.30
2022-12-06T19:01:37.307Z,27.95
2022-12-06T19:04:06.860Z,32.88
2022-12-06T19:06:35.982Z,28.25
2022-12-06T19:09:07.961Z,33.55
2022-12-06T19:11:39.541Z,24.92
2022-12-06T19:14:08.411Z,27.80
2022-12-06T19:16:46.568Z,25.27
2022-12-06T19:19:25.678Z,31.33
2022-12-06T19:21:53.688Z,28.90
2022-12-06T19:24:23.823Z,23.80
2022-12-06T19:26:51.929Z,22.73
2022-12-06T19:29:19.492Z,24.33
2022-12-06T19:31:46.573Z,26.52
2022-12-06T19:34:25.834Z,27.15
2022-12-06T19:36:53.943Z,22.80
2022-12-06T19:39:21.937Z,24.23
2022-12-06T19:42:07.052Z,24.70
2022-12-06T19:44:34.662Z,26.08
2022-12-06T19:47:01.293Z,23.70
2022-12-06T19:49:29.167Z,22.08
2022-12-06T19:51:56.012Z,30.35
2022-12-06T19:54:26.028Z,27.83
2022-12-06T19:56:54.716Z,25.88
2022-12-06T19:59:23.601Z,22.17
2022-12-06T20:01:50.859Z,23.42
2022-12-06T20:04:20.739Z,31.08
2022-12-06T20:06:47.665Z,33.67
2022-12-06T20:09:15.510Z,31.80
2022-12-06T20:12:01.163Z,27.52
2022-12-06T20:14:46.090Z,24.40
2022-12-06T20:17:16.248Z,25.45
2022-12-06T20:19:46.288Z,26.10
2022-12-06T20:22:14.312Z,31.55
2022-12-06T20:24:41.776Z,33.88
2022-12-06T20:27:08.696Z,32.40
2022-12-06T20:29:36.141Z,29.00
2022-12-06T20:32:03.768Z,28.65
2022-12-06T20:34:34.549Z,27.85
2022-12-06T20:37:03.663Z,30.92
2022-12-06T20:39:33.148Z,28.23
2022-12-06T20:42:00.906Z,27.38
2022-12-06T20:44:28.249Z,25.27
2022-12-06T20:46:55.137Z,36.38
2022-12-06T20:49:22.394Z,33.72
2022-12-06T20:51:52.944Z,26.00
2022-12-06T20:54:21.759Z,30.58
2022-12-06T20:56:51.277Z,34.22
2022-12-06T20:59:18.333Z,29.98
2022-12-06T21:01:45.661Z,37.10
2022-12-06T21:04:13.621Z,34.13
2022-12-06T21:06:41.037Z,37.53
2022-12-06T21:09:07.784Z,33.60
2022-12-06T21:11:35.248Z,28.02
2022-12-06T21:14:03.178Z,38.08
2022-12-06T21:16:32.138Z,35.60
2022-12-06T21:19:04.548Z,37.92
2022-12-06T21:21:34.813Z,36.55
2022-12-06T21:24:03.338Z,34.95
2022-12-06T21:26:30.914Z,39.78
2022-12-06T21:28:58.430Z,34.05
2022-12-06T21:31:27.840Z,35.20
2022-12-06T21:33:55.578Z,37.53
2022-12-06T21:36:23.154Z,37.67
2022-12-06T21:38:49.787Z,46.88
2022-12-06T21:41:17.329Z,39.97
2022-12-06T21:43:44.393Z,41.63
2022-12-06T21:46:20.604Z,38.75
2022-12-06T21:48:51.224Z,41.15
2022-12-06T21:51:19.333Z,38.65
2022-12-06T21:53:46.264Z,38.67
2022-12-06T21:56:16.133Z,44.72
2022-12-06T21:58:43.497Z,40.80
2022-12-06T22:01:13.708Z,41.25
2022-12-06T22:03:40.763Z,51.78
2022-12-06T22:06:13.004Z,48.28
2022-12-06T22:08:41.101Z,39.65
2022-12-06T22:11:14.173Z,50.35
2022-12-06T22:13:41.291Z,51.63
2022-12-06T22:16:10.761Z,46.72
2022-12-06T22:18:44.377Z,41.45
2022-12-06T22:21:19.207Z,46.10
2022-12-06T22:23:47.110Z,45.55
2022-12-06T22:26:17.633Z,43.42
2022-12-06T22:28:45.001Z,45.45
2022-12-06T22:31:15.342Z,44.03
2022-12-06T22:33:42.885Z,52.30
2022-12-06T22:36:10.974Z,45.15
2022-12-06T22:38:37.587Z,50.55
2022-12-06T22:41:05.785Z,48.67
2022-12-06T22:43:33.345Z,47.50
2022-12-06T22:46:09.660Z,45.67
2022-12-06T22:48:37.201Z,45.13
2022-12-06T22:51:14.054Z,52.00
2022-12-06T22:53:42.950Z,44.95
2022-12-06T22:56:11.250Z,51.45
2022-12-06T22:58:38.326Z,53.70
2022-12-06T23:01:16.055Z,48.42
2022-12-06T23:03:45.362Z,43.95
2022-12-06T23:06:12.778Z,50.88
2022-12-06T23:08:40.457Z,48.03
2022-12-06T23:11:13.681Z,56.38
2022-12-06T23:13:40.818Z,44.67
2022-12-06T23:16:11.718Z,45.70
2022-12-06T23:18:38.839Z,53.85
2022-12-06T23:21:17.848Z,46.85
2022-12-06T23:23:48.119Z,51.88
2022-12-06T23:26:17.691Z,50.75
2022-12-06T23:28:45.208Z,46.42
2022-12-06T23:31:14.838Z,48.85
2022-12-06T23:33:43.668Z,53.20
2022-12-06T23:36:22.007Z,46.17
2022-12-06T23:38:49.800Z,52.63
2022-12-06T23:41:37.124Z,46.75
2022-12-06T23:44:06.040Z,50.50
2022-12-06T23:46:35.510Z,48.63
2022-12-06T23:49:03.660Z,54.63
2022-12-06T23:51:34.394Z,48.92
2022-12-06T23:54:04.245Z,40.65
2022-12-06T23:56:33.484Z,45.67
2022-12-06T23:59:02.182Z,50.60
